sensor_id;sensor_type;location;lat;lon;timestamp;pressure;altitude;pressure_sealevel;temperature;humidity
82931;BME280;72705;53.346;10.248;2023-12-04T00:01:52;101979.75;;;-3.41;100.00
82931;BME280;72705;53.346;10.248;2023-12-04T00:04:18;101978.06;;;-3.45;100.00
82931;BME280;72705;53.346;10.248;2023-12-04T00:06:43;101990.34;;;-3.44;100.00
82931;BME280;72705;53.346;10.248;2023-12-04T00:09:09;101986.84;;;-3.44;100.00
82931;BME280;72705;53.346;10.248;2023-12-04T00:11:34;101974.41;;;-3.39;100.00
82931;BME280;72705;53.346;10.248;2023-12-04T00:14:00;101981.22;;;-3.32;100.00
82931;BME280;72705;53.346;10.248;2023-12-04T00:16:27;101969.91;;;-3.36;100.00
82931;BME280;72705;53.346;10.248;2023-12-04T00:18:52;101969.09;;;-3.38;100.00
82931;BME280;72705;53.346;10.248;2023-12-04T00:21:19;101977.19;;;-3.44;100.00
82931;BME280;72705;53.346;10.248;2023-12-04T00:23:44;101979.13;;;-3.50;100.00
82931;BME280;72705;53.346;10.248;2023-12-04T00:26:09;101972.19;;;-3.53;100.00
82931;BME280;72705;53.346;10.248;2023-12-04T00:28:39;101977.38;;;-3.51;100.00
82931;BME280;72705;53.346;10.248;2023-12-04T00:31:05;101960.72;;;-3.52;100.00
82931;BME280;72705;53.346;10.248;2023-12-04T00:33:30;101970.81;;;-3.37;100.00
82931;BME280;72705;53.346;10.248;2023-12-04T00:36:02;101971.66;;;-3.35;100.00
82931;BME280;72705;53.346;10.248;2023-12-04T00:38:27;101964.81;;;-3.42;100.00
82931;BME280;72705;53.346;10.248;2023-12-04T00:40:53;101968.38;;;-3.43;100.00
82931;BME280;72705;53.346;10.248;2023-12-04T00:43:18;101962.25;;;-3.45;100.00
82931;BME280;72705;53.346;10.248;2023-12-04T00:45:44;101966.81;;;-3.50;100.00
82931;BME280;72705;53.346;10.248;2023-12-04T00:48:10;101965.06;;;-3.51;100.00
82931;BME280;72705;53.346;10.248;2023-12-04T00:50:35;101957.91;;;-3.46;100.00
82931;BME280;72705;53.346;10.248;2023-12-04T00:53:00;101950.94;;;-3.48;100.00
82931;BME280;72705;53.346;10.248;2023-12-04T00:55:26;101952.19;;;-3.61;100.00
82931;BME280;72705;53.346;10.248;2023-12-04T00:57:52;101953.94;;;-3.60;100.00
82931;BME280;72705;53.346;10.248;2023-12-04T01:00:17;101944.22;;;-3.58;100.00
82931;BME280;72705;53.346;10.248;2023-12-04T01:02:44;101939.97;;;-3.64;100.00
82931;BME280;72705;53.346;10.248;2023-12-04T01:05:10;101942.41;;;-3.58;100.00
82931;BME280;72705;53.346;10.248;2023-12-04T01:07:36;101951.72;;;-3.76;100.00
82931;BME280;72705;53.346;10.248;2023-12-04T01:10:01;101946.34;;;-3.71;100.00
82931;BME280;72705;53.346;10.248;2023-12-04T01:12:26;101931.47;;;-3.74;100.00
82931;BME280;72705;53.346;10.248;2023-12-04T01:14:52;101940.06;;;-3.67;100.00
82931;BME280;72705;53.346;10.248;2023-12-04T01:17:18;101928.75;;;-3.71;100.00
82931;BME280;72705;53.346;10.248;2023-12-04T01:19:43;101938.44;;;-3.71;100.00
82931;BME280;72705;53.346;10.248;2023-12-04T01:22:08;101933.44;;;-3.82;100.00
82931;BME280;72705;53.346;10.248;2023-12-04T01:24:37;101929.88;;;-3.79;100.00
82931;BME280;72705;53.346;10.248;2023-12-04T01:27:03;101935.91;;;-3.76;100.00
82931;BME280;72705;53.346;10.248;2023-12-04T01:29:28;101928.41;;;-3.89;100.00
82931;BME280;72705;53.346;10.248;2023-12-04T01:31:54;101927.63;;;-3.94;100.00
82931;BME280;72705;53.346;10.248;2023-12-04T01:34:19;101935.91;;;-3.76;100.00
82931;BME280;72705;53.346;10.248;2023-12-04T01:36:44;101922.78;;;-3.77;100.00
82931;BME280;72705;53.346;10.248;2023-12-04T01:39:10;101916.75;;;-3.82;100.00
82931;BME280;72705;53.346;10.248;2023-12-04T01:41:35;101924.66;;;-3.82;100.00
82931;BME280;72705;53.346;10.248;2023-12-04T01:44:01;101908.84;;;-3.82;100.00
82931;BME280;72705;53.346;10.248;2023-12-04T01:46:37;101921.94;;;-3.78;100.00
82931;BME280;72705;53.346;10.248;2023-12-04T01:49:03;101916.03;;;-3.87;100.00
82931;BME280;72705;53.346;10.248;2023-12-04T01:51:32;101913.56;;;-3.93;100.00
82931;BME280;72705;53.346;10.248;2023-12-04T01:54:03;101911.22;;;-4.04;100.00
82931;BME280;72705;53.346;10.248;2023-12-04T01:56:36;101917.28;;;-4.00;100.00
82931;BME280;72705;53.346;10.248;2023-12-04T01:59:02;101917.88;;;-3.89;100.00
82931;BME280;72705;53.346;10.248;2023-12-04T02:01:28;101897.03;;;-3.98;100.00
82931;BME280;72705;53.346;10.248;2023-12-04T02:03:54;101906.38;;;-3.87;100.00
82931;BME280;72705;53.346;10.248;2023-12-04T02:06:19;101886.44;;;-3.95;100.00
82931;BME280;72705;53.346;10.248;2023-12-04T02:08:50;101890.88;;;-3.97;100.00
82931;BME280;72705;53.346;10.248;2023-12-04T02:11:16;101889.84;;;-3.93;100.00
82931;BME280;72705;53.346;10.248;2023-12-04T02:13:42;101887.16;;;-3.90;100.00
82931;BME280;72705;53.346;10.248;2023-12-04T02:16:10;101885.50;;;-3.94;100.00
82931;BME280;72705;53.346;10.248;2023-12-04T02:18:41;101876.97;;;-4.02;100.00
82931;BME280;72705;53.346;10.248;2023-12-04T02:21:07;101871.88;;;-4.09;100.00
82931;BME280;72705;53.346;10.248;2023-12-04T02:23:40;101863.69;;;-3.99;100.00
82931;BME280;72705;53.346;10.248;2023-12-04T02:26:09;101870.69;;;-3.98;100.00
82931;BME280;72705;53.346;10.248;2023-12-04T02:28:36;101875.88;;;-3.95;100.00
82931;BME280;72705;53.346;10.248;2023-12-04T02:31:04;101866.09;;;-3.90;100.00
82931;BME280;72705;53.346;10.248;2023-12-04T02:33:31;101849.63;;;-3.98;100.00
82931;BME280;72705;53.346;10.248;2023-12-04T02:35:59;101851.25;;;-3.94;100.00
82931;BME280;72705;53.346;10.248;2023-12-04T02:38:33;101854.63;;;-3.89;100.00
82931;BME280;72705;53.346;10.248;2023-12-04T02:41:05;101842.59;;;-3.98;100.00
82931;BME280;72705;53.346;10.248;2023-12-04T02:43:30;101839.19;;;-4.01;100.00
82931;BME280;72705;53.346;10.248;2023-12-04T02:45:56;101835.53;;;-3.97;100.00
82931;BME280;72705;53.346;10.248;2023-12-04T02:48:21;101847.59;;;-3.89;100.00
82931;BME280;72705;53.346;10.248;2023-12-04T02:50:46;101835.38;;;-3.91;100.00
82931;BME280;72705;53.346;10.248;2023-12-04T02:53:12;101837.78;;;-3.84;100.00
82931;BME280;72705;53.346;10.248;2023-12-04T02:55:38;101823.97;;;-3.92;100.00
82931;BME280;72705;53.346;10.248;2023-12-04T02:58:03;101830.75;;;-3.83;100.00
82931;BME280;72705;53.346;10.248;2023-12-04T03:00:30;101813.41;;;-3.90;100.00
82931;BME280;72705;53.346;10.248;2023-12-04T03:02:55;101818.66;;;-3.90;100.00
82931;BME280;72705;53.346;10.248;2023-12-04T03:05:20;101811.53;;;-3.87;100.00
82931;BME280;72705;53.346;10.248;2023-12-04T03:07:49;101805.50;;;-3.90;100.00
82931;BME280;72705;53.346;10.248;2023-12-04T03:10:14;101808.94;;;-3.88;100.00
82931;BME280;72705;53.346;10.248;2023-12-04T03:12:40;101805.47;;;-3.89;100.00
82931;BME280;72705;53.346;10.248;2023-12-04T03:15:07;101805.50;;;-3.90;100.00
82931;BME280;72705;53.346;10.248;2023-12-04T03:17:33;101797.84;;;-3.99;100.00
82931;BME280;72705;53.346;10.248;2023-12-04T03:19:58;101809.22;;;-3.97;100.00
82931;BME280;72705;53.346;10.248;2023-12-04T03:22:24;101795.31;;;-4.02;100.00
82931;BME280;72705;53.346;10.248;2023-12-04T03:24:49;101792.50;;;-3.96;100.00
82931;BME280;72705;53.346;10.248;2023-12-04T03:27:14;101779.41;;;-3.99;100.00
82931;BME280;72705;53.346;10.248;2023-12-04T03:29:40;101776.06;;;-4.04;100.00
82931;BME280;72705;53.346;10.248;2023-12-04T03:32:05;101775.28;;;-4.08;100.00
82931;BME280;72705;53.346;10.248;2023-12-04T03:34:36;101785.66;;;-4.02;100.00
82931;BME280;72705;53.346;10.248;2023-12-04T03:37:01;101775.88;;;-3.98;100.00
82931;BME280;72705;53.346;10.248;2023-12-04T03:39:28;101774.97;;;-3.97;100.00
82931;BME280;72705;53.346;10.248;2023-12-04T03:41:54;101762.66;;;-3.97;100.00
82931;BME280;72705;53.346;10.248;2023-12-04T03:44:23;101769.59;;;-3.94;100.00
82931;BME280;72705;53.346;10.248;2023-12-04T03:46:48;101768.78;;;-3.96;100.00
82931;BME280;72705;53.346;10.248;2023-12-04T03:49:23;101764.63;;;-4.03;100.00
82931;BME280;72705;53.346;10.248;2023-12-04T03:51:48;101757.06;;;-4.16;100.00
82931;BME280;72705;53.346;10.248;2023-12-04T03:54:14;101760.03;;;-4.26;100.00
82931;BME280;72705;53.346;10.248;2023-12-04T03:56:44;101749.66;;;-4.32;100.00
82931;BME280;72705;53.346;10.248;2023-12-04T03:59:10;101747.16;;;-4.37;100.00
82931;BME280;72705;53.346;10.248;2023-12-04T04:01:40;101744.50;;;-4.37;100.00
82931;BME280;72705;53.346;10.248;2023-12-04T04:04:05;101749.22;;;-4.48;100.00
82931;BME280;72705;53.346;10.248;2023-12-04T04:06:41;101733.78;;;-4.60;100.00
82931;BME280;72705;53.346;10.248;2023-12-04T04:09:06;101738.97;;;-4.57;100.00
82931;BME280;72705;53.346;10.248;2023-12-04T04:11:31;101739.13;;;-4.63;100.00
82931;BME280;72705;53.346;10.248;2023-12-04T04:13:57;101730.63;;;-4.73;100.00
82931;BME280;72705;53.346;10.248;2023-12-04T04:16:24;101727.25;;;-4.78;100.00
82931;BME280;72705;53.346;10.248;2023-12-04T04:18:49;101719.09;;;-4.69;100.00
82931;BME280;72705;53.346;10.248;2023-12-04T04:21:15;101716.19;;;-4.58;100.00
82931;BME280;72705;53.346;10.248;2023-12-04T04:23:40;101723.06;;;-4.54;100.00
82931;BME280;72705;53.346;10.248;2023-12-04T04:26:06;101724.53;;;-4.44;100.00
82931;BME280;72705;53.346;10.248;2023-12-04T04:28:32;101727.13;;;-4.42;100.00
82931;BME280;72705;53.346;10.248;2023-12-04T04:30:58;101726.34;;;-4.15;100.00
82931;BME280;72705;53.346;10.248;2023-12-04T04:33:23;101710.50;;;-4.14;100.00
82931;BME280;72705;53.346;10.248;2023-12-04T04:35:48;101711.16;;;-4.07;100.00
82931;BME280;72705;53.346;10.248;2023-12-04T04:38:14;101716.34;;;-4.04;100.00
82931;BME280;72705;53.346;10.248;2023-12-04T04:40:39;101705.84;;;-4.05;100.00
82931;BME280;72705;53.346;10.248;2023-12-04T04:43:08;101703.44;;;-4.13;100.00
82931;BME280;72705;53.346;10.248;2023-12-04T04:45:34;101703.13;;;-4.02;100.00
82931;BME280;72705;53.346;10.248;2023-12-04T04:47:59;101709.31;;;-4.03;100.00
82931;BME280;72705;53.346;10.248;2023-12-04T04:50:27;101703.13;;;-4.02;100.00
82931;BME280;72705;53.346;10.248;2023-12-04T04:52:52;101695.13;;;-3.99;100.00
82931;BME280;72705;53.346;10.248;2023-12-04T04:55:18;101686.03;;;-3.89;100.00
82931;BME280;72705;53.346;10.248;2023-12-04T04:57:43;101697.63;;;-3.67;100.00
82931;BME280;72705;53.346;10.248;2023-12-04T05:00:09;101703.72;;;-3.65;99.95
82931;BME280;72705;53.346;10.248;2023-12-04T05:02:34;101695.59;;;-3.59;99.93
82931;BME280;72705;53.346;10.248;2023-12-04T05:05:02;101677.19;;;-3.60;99.62
82931;BME280;72705;53.346;10.248;2023-12-04T05:07:28;101686.50;;;-3.50;99.52
82931;BME280;72705;53.346;10.248;2023-12-04T05:09:56;101683.00;;;-3.51;99.56
82931;BME280;72705;53.346;10.248;2023-12-04T05:12:21;101689.13;;;-3.49;99.53
82931;BME280;72705;53.346;10.248;2023-12-04T05:14:46;101684.66;;;-3.47;99.05
82931;BME280;72705;53.346;10.248;2023-12-04T05:17:21;101688.19;;;-3.48;99.18
82931;BME280;72705;53.346;10.248;2023-12-04T05:19:46;101672.38;;;-3.48;99.84
82931;BME280;72705;53.346;10.248;2023-12-04T05:22:12;101672.22;;;-3.43;99.38
82931;BME280;72705;53.346;10.248;2023-12-04T05:24:37;101676.59;;;-3.42;99.52
82931;BME280;72705;53.346;10.248;2023-12-04T05:27:03;101670.88;;;-3.55;98.82
82931;BME280;72705;53.346;10.248;2023-12-04T05:29:28;101647.72;;;-3.72;98.59
82931;BME280;72705;53.346;10.248;2023-12-04T05:31:53;101669.84;;;-3.51;98.89
82931;BME280;72705;53.346;10.248;2023-12-04T05:34:19;101655.25;;;-3.61;98.99
82931;BME280;72705;53.346;10.248;2023-12-04T05:37:02;101668.72;;;-3.70;99.33
82931;BME280;72705;53.346;10.248;2023-12-04T05:39:29;101667.06;;;-3.73;99.36
82931;BME280;72705;53.346;10.248;2023-12-04T05:42:00;101660.22;;;-3.78;99.68
82931;BME280;72705;53.346;10.248;2023-12-04T05:44:26;101646.72;;;-3.69;99.61
82931;BME280;72705;53.346;10.248;2023-12-04T05:46:52;101646.22;;;-3.80;99.76
82931;BME280;72705;53.346;10.248;2023-12-04T05:49:17;101644.66;;;-3.86;100.00
82931;BME280;72705;53.346;10.248;2023-12-04T05:51:43;101649.63;;;-3.77;100.00
82931;BME280;72705;53.346;10.248;2023-12-04T05:54:09;101641.47;;;-3.69;100.00
82931;BME280;72705;53.346;10.248;2023-12-04T05:56:38;101647.44;;;-3.64;99.57
82931;BME280;72705;53.346;10.248;2023-12-04T05:59:04;101641.38;;;-3.66;99.62
82931;BME280;72705;53.346;10.248;2023-12-04T06:01:29;101642.44;;;-3.72;100.00
82931;BME280;72705;53.346;10.248;2023-12-04T06:03:57;101634.25;;;-3.64;100.00
82931;BME280;72705;53.346;10.248;2023-12-04T06:06:22;101637.16;;;-3.72;100.00
82931;BME280;72705;53.346;10.248;2023-12-04T06:08:47;101612.38;;;-3.92;100.00
82931;BME280;72705;53.346;10.248;2023-12-04T06:11:13;101600.22;;;-3.96;100.00
82931;BME280;72705;53.346;10.248;2023-12-04T06:13:39;101622.09;;;-3.68;100.00
82931;BME280;72705;53.346;10.248;2023-12-04T06:16:05;101616.94;;;-3.71;100.00
82931;BME280;72705;53.346;10.248;2023-12-04T06:18:31;101617.16;;;-3.77;100.00
82931;BME280;72705;53.346;10.248;2023-12-04T06:20:56;101595.63;;;-3.90;100.00
82931;BME280;72705;53.346;10.248;2023-12-04T06:23:22;101609.94;;;-3.72;100.00
82931;BME280;72705;53.346;10.248;2023-12-04T06:25:47;101613.28;;;-3.67;100.00
82931;BME280;72705;53.346;10.248;2023-12-04T06:28:13;101587.69;;;-3.63;100.00
82931;BME280;72705;53.346;10.248;2023-12-04T06:30:41;101606.78;;;-3.57;100.00
82931;BME280;72705;53.346;10.248;2023-12-04T06:33:07;101605.88;;;-3.56;100.00
82931;BME280;72705;53.346;10.248;2023-12-04T06:35:33;101591.50;;;-3.46;100.00
82931;BME280;72705;53.346;10.248;2023-12-04T06:38:05;101583.19;;;-3.60;100.00
82931;BME280;72705;53.346;10.248;2023-12-04T06:40:31;101598.25;;;-3.39;100.00
82931;BME280;72705;53.346;10.248;2023-12-04T06:42:57;101581.63;;;-3.41;100.00
82931;BME280;72705;53.346;10.248;2023-12-04T06:45:23;101588.22;;;-3.28;100.00
82931;BME280;72705;53.346;10.248;2023-12-04T06:47:50;101587.03;;;-3.20;100.00
82931;BME280;72705;53.346;10.248;2023-12-04T06:50:16;101570.16;;;-3.15;100.00
82931;BME280;72705;53.346;10.248;2023-12-04T06:52:41;101590.75;;;-3.01;100.00
82931;BME280;72705;53.346;10.248;2023-12-04T06:55:07;101573.13;;;-3.01;100.00
82931;BME280;72705;53.346;10.248;2023-12-04T06:57:33;101582.72;;;-2.98;100.00
82931;BME280;72705;53.346;10.248;2023-12-04T06:59:59;101575.31;;;-2.89;100.00
82931;BME280;72705;53.346;10.248;2023-12-04T07:02:24;101570.13;;;-2.90;100.00
82931;BME280;72705;53.346;10.248;2023-12-04T07:04:50;101564.09;;;-2.94;100.00
82931;BME280;72705;53.346;10.248;2023-12-04T07:07:15;101582.28;;;-2.86;100.00
82931;BME280;72705;53.346;10.248;2023-12-04T07:09:41;101557.72;;;-2.88;100.00
82931;BME280;72705;53.346;10.248;2023-12-04T07:12:06;101576.13;;;-2.87;100.00
82931;BME280;72705;53.346;10.248;2023-12-04T07:14:32;101575.72;;;-2.99;100.00
82931;BME280;72705;53.346;10.248;2023-12-04T07:16:57;101593.16;;;-2.95;100.00
82931;BME280;72705;53.346;10.248;2023-12-04T07:19:24;101596.78;;;-2.98;100.00
82931;BME280;72705;53.346;10.248;2023-12-04T07:21:50;101590.53;;;-2.95;100.00
82931;BME280;72705;53.346;10.248;2023-12-04T07:24:17;101588.53;;;-2.89;100.00
82931;BME280;72705;53.346;10.248;2023-12-04T07:26:42;101592.16;;;-2.91;100.00
82931;BME280;72705;53.346;10.248;2023-12-04T07:29:07;101583.31;;;-2.90;100.00
82931;BME280;72705;53.346;10.248;2023-12-04T07:31:33;101576.78;;;-3.03;100.00
82931;BME280;72705;53.346;10.248;2023-12-04T07:33:59;101574.50;;;-3.14;100.00
82931;BME280;72705;53.346;10.248;2023-12-04T07:36:27;101597.69;;;-2.99;100.00
82931;BME280;72705;53.346;10.248;2023-12-04T07:38:53;101567.88;;;-3.01;100.00
82931;BME280;72705;53.346;10.248;2023-12-04T07:41:20;101598.22;;;-2.89;100.00
82931;BME280;72705;53.346;10.248;2023-12-04T07:43:46;101578.81;;;-2.88;100.00
82931;BME280;72705;53.346;10.248;2023-12-04T07:46:11;101587.56;;;-2.86;100.00
82931;BME280;72705;53.346;10.248;2023-12-04T07:48:41;101577.63;;;-2.79;100.00
82931;BME280;72705;53.346;10.248;2023-12-04T07:51:08;101588.19;;;-2.79;100.00
82931;BME280;72705;53.346;10.248;2023-12-04T07:53:35;101574.00;;;-2.77;100.00
82931;BME280;72705;53.346;10.248;2023-12-04T07:56:01;101582.63;;;-2.72;100.00
82931;BME280;72705;53.346;10.248;2023-12-04T07:58:39;101568.25;;;-2.65;100.00
82931;BME280;72705;53.346;10.248;2023-12-04T08:01:05;101562.44;;;-2.73;100.00
82931;BME280;72705;53.346;10.248;2023-12-04T08:03:31;101579.28;;;-2.77;100.00
82931;BME280;72705;53.346;10.248;2023-12-04T08:05:57;101557.63;;;-2.85;100.00
82931;BME280;72705;53.346;10.248;2023-12-04T08:08:23;101564.75;;;-2.65;100.00
82931;BME280;72705;53.346;10.248;2023-12-04T08:10:49;101551.63;;;-2.67;100.00
82931;BME280;72705;53.346;10.248;2023-12-04T08:13:15;101551.41;;;-2.61;100.00
82931;BME280;72705;53.346;10.248;2023-12-04T08:15:41;101560.91;;;-2.57;100.00
82931;BME280;72705;53.346;10.248;2023-12-04T08:18:06;101563.94;;;-2.66;100.00
82931;BME280;72705;53.346;10.248;2023-12-04T08:20:32;101563.69;;;-2.60;100.00
82931;BME280;72705;53.346;10.248;2023-12-04T08:22:58;101558.16;;;-2.54;100.00
82931;BME280;72705;53.346;10.248;2023-12-04T08:25:23;101563.75;;;-2.61;100.00
82931;BME280;72705;53.346;10.248;2023-12-04T08:27:48;101571.53;;;-2.58;100.00
82931;BME280;72705;53.346;10.248;2023-12-04T08:30:15;101568.72;;;-2.54;100.00
82931;BME280;72705;53.346;10.248;2023-12-04T08:32:40;101568.59;;;-2.51;100.00
82931;BME280;72705;53.346;10.248;2023-12-04T08:35:06;101545.50;;;-2.67;100.00
82931;BME280;72705;53.346;10.248;2023-12-04T08:37:31;101567.44;;;-2.43;100.00
82931;BME280;72705;53.346;10.248;2023-12-04T08:39:57;101552.50;;;-2.45;100.00
82931;BME280;72705;53.346;10.248;2023-12-04T08:42:22;101568.78;;;-2.33;100.00
82931;BME280;72705;53.346;10.248;2023-12-04T08:44:48;101572.72;;;-2.22;100.00
82931;BME280;72705;53.346;10.248;2023-12-04T08:47:13;101571.88;;;-2.22;100.00
82931;BME280;72705;53.346;10.248;2023-12-04T08:49:40;101566.41;;;-2.18;100.00
82931;BME280;72705;53.346;10.248;2023-12-04T08:52:09;101556.72;;;-2.17;100.00
82931;BME280;72705;53.346;10.248;2023-12-04T08:54:35;101560.13;;;-2.15;100.00
82931;BME280;72705;53.346;10.248;2023-12-04T08:57:00;101567.81;;;-2.09;100.00
82931;BME280;72705;53.346;10.248;2023-12-04T08:59:26;101553.88;;;-2.13;100.00
82931;BME280;72705;53.346;10.248;2023-12-04T09:01:52;101560.56;;;-2.26;100.00
82931;BME280;72705;53.346;10.248;2023-12-04T09:04:18;101558.53;;;-2.19;100.00
82931;BME280;72705;53.346;10.248;2023-12-04T09:06:43;101544.66;;;-2.24;100.00
82931;BME280;72705;53.346;10.248;2023-12-04T09:09:09;101549.50;;;-2.14;100.00
82931;BME280;72705;53.346;10.248;2023-12-04T09:11:34;101556.22;;;-2.05;100.00
82931;BME280;72705;53.346;10.248;2023-12-04T09:13:59;101557.31;;;-2.11;100.00
82931;BME280;72705;53.346;10.248;2023-12-04T09:16:28;101556.22;;;-2.05;100.00
82931;BME280;72705;53.346;10.248;2023-12-04T09:18:54;101548.28;;;-1.85;100.00
82931;BME280;72705;53.346;10.248;2023-12-04T09:21:19;101539.69;;;-1.90;100.00
82931;BME280;72705;53.346;10.248;2023-12-04T09:23:52;101553.25;;;-1.77;100.00
82931;BME280;72705;53.346;10.248;2023-12-04T09:26:18;101545.91;;;-1.91;100.00
82931;BME280;72705;53.346;10.248;2023-12-04T09:28:46;101539.44;;;-2.04;100.00
82931;BME280;72705;53.346;10.248;2023-12-04T09:31:13;101543.16;;;-1.88;100.00
82931;BME280;72705;53.346;10.248;2023-12-04T09:33:42;101528.63;;;-1.78;100.00
82931;BME280;72705;53.346;10.248;2023-12-04T09:36:13;101546.84;;;-1.92;100.00
82931;BME280;72705;53.346;10.248;2023-12-04T09:38:39;101528.75;;;-1.81;100.00
82931;BME280;72705;53.346;10.248;2023-12-04T09:41:06;101521.44;;;-1.74;100.00
82931;BME280;72705;53.346;10.248;2023-12-04T09:43:32;101543.03;;;-1.44;99.11
82931;BME280;72705;53.346;10.248;2023-12-04T09:45:59;101549.50;;;-1.31;98.52
82931;BME280;72705;53.346;10.248;2023-12-04T09:48:25;101528.56;;;-1.56;99.17
82931;BME280;72705;53.346;10.248;2023-12-04T09:50:52;101536.66;;;-1.20;98.18
82931;BME280;72705;53.346;10.248;2023-12-04T09:53:22;101515.91;;;-1.29;96.58
82931;BME280;72705;53.346;10.248;2023-12-04T09:55:53;101543.47;;;-1.14;96.57
82931;BME280;72705;53.346;10.248;2023-12-04T09:58:20;101540.69;;;-1.11;96.56
82931;BME280;72705;53.346;10.248;2023-12-04T10:00:46;101520.91;;;-1.23;96.15
82931;BME280;72705;53.346;10.248;2023-12-04T10:03:12;101541.16;;;-1.22;97.51
82931;BME280;72705;53.346;10.248;2023-12-04T10:05:44;101508.25;;;-1.16;96.14
82931;BME280;72705;53.346;10.248;2023-12-04T10:08:10;101515.34;;;-1.17;96.10
82931;BME280;72705;53.346;10.248;2023-12-04T10:10:36;101513.47;;;-1.34;96.52
82931;BME280;72705;53.346;10.248;2023-12-04T10:13:01;101500.44;;;-1.38;97.71
82931;BME280;72705;53.346;10.248;2023-12-04T10:15:30;101492.75;;;-1.24;97.42
82931;BME280;72705;53.346;10.248;2023-12-04T10:17:56;101497.19;;;-1.25;97.78
82931;BME280;72705;53.346;10.248;2023-12-04T10:20:21;101499.75;;;-1.23;96.73
82931;BME280;72705;53.346;10.248;2023-12-04T10:22:59;101498.06;;;-1.05;95.95
82931;BME280;72705;53.346;10.248;2023-12-04T10:25:35;101487.19;;;-1.18;95.86
82931;BME280;72705;53.346;10.248;2023-12-04T10:28:09;101479.31;;;-1.19;96.27
82931;BME280;72705;53.346;10.248;2023-12-04T10:30:39;101481.31;;;-1.25;95.93
82931;BME280;72705;53.346;10.248;2023-12-04T10:33:06;101475.88;;;-1.22;96.54
82931;BME280;72705;53.346;10.248;2023-12-04T10:35:33;101461.44;;;-0.96;95.34
82931;BME280;72705;53.346;10.248;2023-12-04T10:38:02;101473.19;;;-1.01;95.49
82931;BME280;72705;53.346;10.248;2023-12-04T10:40:31;101467.16;;;-1.05;95.42
82931;BME280;72705;53.346;10.248;2023-12-04T10:43:18;101467.72;;;-0.98;94.30
82931;BME280;72705;53.346;10.248;2023-12-04T10:45:46;101460.56;;;-0.77;93.67
82931;BME280;72705;53.346;10.248;2023-12-04T10:48:24;101461.84;;;-1.05;94.14
82931;BME280;72705;53.346;10.248;2023-12-04T10:50:50;101440.13;;;-0.93;93.94
82931;BME280;72705;53.346;10.248;2023-12-04T10:53:16;101442.28;;;-1.19;94.78
82931;BME280;72705;53.346;10.248;2023-12-04T10:55:45;101458.50;;;-1.27;95.40
82931;BME280;72705;53.346;10.248;2023-12-04T10:58:15;101463.88;;;-1.10;94.93
82931;BME280;72705;53.346;10.248;2023-12-04T11:00:47;101462.13;;;-1.11;94.75
82931;BME280;72705;53.346;10.248;2023-12-04T11:03:22;101454.88;;;-1.06;94.41
82931;BME280;72705;53.346;10.248;2023-12-04T11:05:56;101444.97;;;-0.84;93.48
82931;BME280;72705;53.346;10.248;2023-12-04T11:08:33;101455.56;;;-1.02;93.32
82931;BME280;72705;53.346;10.248;2023-12-04T11:11:05;101440.84;;;-0.89;93.01
82931;BME280;72705;53.346;10.248;2023-12-04T11:13:36;101423.97;;;-1.05;93.03
82931;BME280;72705;53.346;10.248;2023-12-04T11:16:30;101436.31;;;-0.68;92.49
82931;BME280;72705;53.346;10.248;2023-12-04T11:22:00;101419.00;;;-0.75;92.55
82931;BME280;72705;53.346;10.248;2023-12-04T11:24:27;101420.25;;;-0.65;91.87
82931;BME280;72705;53.346;10.248;2023-12-04T11:26:54;101415.22;;;-0.89;91.94
82931;BME280;72705;53.346;10.248;2023-12-04T11:29:21;101415.56;;;-0.77;92.10
82931;BME280;72705;53.346;10.248;2023-12-04T11:31:52;101411.94;;;-0.94;92.40
82931;BME280;72705;53.346;10.248;2023-12-04T11:34:24;101407.50;;;-0.93;92.30
82931;BME280;72705;53.346;10.248;2023-12-04T11:36:50;101411.56;;;-0.86;92.63
82931;BME280;72705;53.346;10.248;2023-12-04T11:39:16;101411.63;;;-0.69;91.60
82931;BME280;72705;53.346;10.248;2023-12-04T11:41:41;101410.91;;;-0.72;91.51
82931;BME280;72705;53.346;10.248;2023-12-04T11:44:13;101402.03;;;-0.71;90.93
82931;BME280;72705;53.346;10.248;2023-12-04T11:46:55;101397.53;;;-0.69;91.84
82931;BME280;72705;53.346;10.248;2023-12-04T11:49:28;101399.81;;;-0.62;91.05
82931;BME280;72705;53.346;10.248;2023-12-04T11:51:59;101401.41;;;-0.76;91.26
82931;BME280;72705;53.346;10.248;2023-12-04T11:54:27;101392.91;;;-0.83;92.95
82931;BME280;72705;53.346;10.248;2023-12-04T11:59:37;101376.47;;;-0.72;91.85
82931;BME280;72705;53.346;10.248;2023-12-04T12:02:07;101369.81;;;-0.62;91.21
82931;BME280;72705;53.346;10.248;2023-12-04T12:04:39;101374.63;;;-0.53;90.96
82931;BME280;72705;53.346;10.248;2023-12-04T12:07:05;101357.63;;;-0.66;90.60
82931;BME280;72705;53.346;10.248;2023-12-04T12:09:38;101378.38;;;-0.74;91.52
82931;BME280;72705;53.346;10.248;2023-12-04T12:12:15;101369.81;;;-0.62;91.94
82931;BME280;72705;53.346;10.248;2023-12-04T12:14:40;101324.59;;;-0.94;91.57
82931;BME280;72705;53.346;10.248;2023-12-04T12:17:06;101268.81;;;-1.25;91.48
82931;BME280;72705;53.346;10.248;2023-12-04T12:19:34;101348.38;;;-0.75;91.84
82931;BME280;72705;53.346;10.248;2023-12-04T12:22:00;101352.19;;;-0.46;91.37
82931;BME280;72705;53.346;10.248;2023-12-04T12:24:31;101333.34;;;-0.74;91.80
82931;BME280;72705;53.346;10.248;2023-12-04T12:26:57;101343.16;;;-0.76;92.20
82931;BME280;72705;53.346;10.248;2023-12-04T12:29:36;101339.03;;;-0.65;92.13
82931;BME280;72705;53.346;10.248;2023-12-04T12:32:05;101293.72;;;-0.76;90.90
82931;BME280;72705;53.346;10.248;2023-12-04T12:34:32;101223.84;;;-1.08;90.23
82931;BME280;72705;53.346;10.248;2023-12-04T12:37:04;101230.22;;;-0.77;89.97
82931;BME280;72705;53.346;10.248;2023-12-04T12:39:31;101286.13;;;-0.49;90.05